Time;durP1;ratioP1;P1;durP2;ratioP2;P2;SDS_P1;SDS_P2;PMS_P1;PMS_P2;Temp;Humidity;BMP_temperature;BMP_pressure;BME280_temperature;BME280_humidity;BME280_pressure;Samples;Min_cycle;Max_cycle;Signal;HPM_P1;HPM_P2
2021/01/29 00:01:58;;;;;;;29.50;21.95;;;6.50;94.20;;;;;;5077677;28;20516;-68
2021/01/29 00:04:24;;;;;;;28.67;22.48;;;6.50;94.20;;;;;;5077417;28;20380;-69
2021/01/29 00:06:50;;;;;;;47.00;29.58;;;6.50;94.20;;;;;;5094854;28;20020;-68
2021/01/29 00:09:16;;;;;;;42.33;28.90;;;6.40;94.20;;;;;;5094875;28;20031;-67
2021/01/29 00:11:42;;;;;;;34.38;23.67;;;6.40;94.30;;;;;;5095163;28;20028;-67
2021/01/29 00:14:07;;;;;;;30.70;23.05;;;6.50;94.30;;;;;;5094713;28;20384;-71
2021/01/29 00:16:33;;;;;;;28.40;22.15;;;6.40;94.30;;;;;;5095119;28;20066;-69
2021/01/29 00:18:58;;;;;;;27.83;22.33;;;6.50;94.30;;;;;;5095191;28;20032;-65
2021/01/29 00:21:24;;;;;;;28.23;21.73;;;6.50;94.30;;;;;;5094363;28;20024;-66
2021/01/29 00:23:49;;;;;;;31.45;23.40;;;6.50;94.30;;;;;;5077042;28;20097;-68
2021/01/29 00:26:15;;;;;;;29.67;22.15;;;6.50;94.30;;;;;;5094392;28;20020;-67
2021/01/29 00:28:41;;;;;;;30.70;22.13;;;6.50;94.30;;;;;;5076602;28;20044;-66
2021/01/29 00:31:06;;;;;;;30.00;21.77;;;6.50;94.40;;;;;;5095143;28;20064;-66
2021/01/29 00:33:32;;;;;;;29.70;22.35;;;6.50;94.40;;;;;;5094098;28;20099;-66
2021/01/29 00:35:58;;;;;;;30.67;23.20;;;6.50;94.40;;;;;;5095272;28;20043;-67
2021/01/29 00:38:23;;;;;;;35.25;23.23;;;6.50;94.40;;;;;;5094270;28;20511;-69
2021/01/29 00:40:49;;;;;;;36.67;23.80;;;6.50;94.40;;;;;;5094213;28;20472;-68
2021/01/29 00:43:14;;;;;;;33.33;24.13;;;6.50;94.50;;;;;;5076676;28;20024;-67
2021/01/29 00:45:41;;;;;;;33.35;23.77;;;6.50;94.50;;;;;;5094509;28;20024;-67
2021/01/29 00:48:08;;;;;;;36.55;23.70;;;6.40;94.50;;;;;;5094049;28;20024;-67
2021/01/29 00:50:33;;;;;;;36.75;23.90;;;6.40;94.50;;;;;;5094611;28;20111;-67
2021/01/29 00:52:59;;;;;;;41.10;23.35;;;6.40;94.60;;;;;;5091978;28;20166;-67
2021/01/29 00:55:26;;;;;;;32.78;22.90;;;6.40;94.60;;;;;;5094322;28;20020;-68
2021/01/29 00:57:51;;;;;;;46.28;27.65;;;6.40;94.70;;;;;;5094451;28;20032;-67
2021/01/29 01:00:18;;;;;;;34.50;24.25;;;6.40;94.70;;;;;;5093980;28;20023;-69
2021/01/29 01:02:44;;;;;;;40.42;22.42;;;6.40;94.70;;;;;;5076270;28;20028;-67
2021/01/29 01:05:11;;;;;;;33.85;21.90;;;6.40;94.70;;;;;;5094710;28;20085;-67
2021/01/29 01:07:37;;;;;;;31.50;22.92;;;6.40;94.70;;;;;;5093258;28;20181;-66
2021/01/29 01:10:05;;;;;;;34.22;24.00;;;6.40;94.70;;;;;;5094231;28;20027;-68
2021/01/29 01:12:31;;;;;;;34.50;21.95;;;6.40;94.70;;;;;;5093965;28;20050;-68
2021/01/29 01:14:57;;;;;;;40.78;23.20;;;6.40;94.70;;;;;;5093521;28;20452;-67
2021/01/29 01:17:22;;;;;;;48.60;24.08;;;6.40;94.80;;;;;;5093824;28;20122;-67
2021/01/29 01:19:48;;;;;;;35.60;22.73;;;6.40;94.70;;;;;;5075812;28;20107;-67
2021/01/29 01:22:14;;;;;;;37.33;22.65;;;6.40;94.80;;;;;;5092787;28;20034;-67
2021/01/29 01:24:39;;;;;;;40.58;23.13;;;6.40;94.80;;;;;;5093819;28;20024;-67
2021/01/29 01:27:10;;;;;;;44.10;23.48;;;6.50;94.80;;;;;;5093872;28;20023;-67
2021/01/29 01:29:36;;;;;;;41.30;23.00;;;6.50;94.80;;;;;;5092880;28;20107;-67
2021/01/29 01:32:02;;;;;;;42.88;24.25;;;6.50;94.80;;;;;;5094018;28;20107;-69
2021/01/29 01:34:27;;;;;;;50.72;24.23;;;6.50;94.80;;;;;;5093602;28;20092;-67
2021/01/29 01:36:53;;;;;;;45.53;24.30;;;6.50;94.80;;;;;;5092840;28;20422;-68
2021/01/29 01:39:18;;;;;;;57.10;25.27;;;6.50;94.80;;;;;;5093454;28;20051;-67
2021/01/29 01:41:44;;;;;;;69.30;24.67;;;6.50;94.80;;;;;;5092957;28;20028;-67
2021/01/29 01:44:22;;;;;;;46.20;24.88;;;6.50;94.80;;;;;;5093555;28;20050;-67
2021/01/29 01:46:48;;;;;;;48.47;23.65;;;6.50;94.80;;;;;;5097683;28;20020;-67
2021/01/29 01:49:14;;;;;;;56.80;25.60;;;6.50;94.80;;;;;;5100969;28;20024;-68
2021/01/29 01:51:51;;;;;;;61.90;25.15;;;6.50;94.80;;;;;;5104756;28;20024;-69
2021/01/29 01:54:26;;;;;;;45.40;24.20;;;6.60;94.80;;;;;;5113864;28;20383;-67
2021/01/29 01:56:56;;;;;;;44.80;23.95;;;6.60;94.80;;;;;;5078930;28;20021;-68
2021/01/29 01:59:25;;;;;;;73.03;25.15;;;6.60;94.90;;;;;;5099509;28;20027;-67
2021/01/29 02:01:55;;;;;;;62.30;25.67;;;6.50;94.90;;;;;;5106769;28;20016;-67
2021/01/29 02:04:30;;;;;;;51.88;24.42;;;6.60;94.90;;;;;;5102566;28;20461;-69
2021/01/29 02:07:17;;;;;;;41.65;25.25;;;6.60;95.00;;;;;;5093369;28;20530;-67
2021/01/29 02:09:45;;;;;;;35.42;24.05;;;6.50;95.00;;;;;;5092852;28;20066;-67
2021/01/29 02:12:10;;;;;;;53.80;24.73;;;6.60;95.00;;;;;;5093355;28;20062;-67
2021/01/29 02:14:36;;;;;;;45.67;23.30;;;6.60;95.00;;;;;;5092837;28;20048;-68
2021/01/29 02:17:18;;;;;;;41.83;25.40;;;6.60;95.00;;;;;;5092512;28;20492;-68
2021/01/29 02:20:16;;;;;;;;;;;6.70;95.00;;;;;;5093473;28;20024;-67
2021/01/29 02:22:59;;;;;;;42.53;23.27;;;6.70;95.00;;;;;;5030793;28;19988;-67
2021/01/29 02:25:53;;;;;;;49.08;25.92;;;6.70;95.00;;;;;;5092036;28;20059;-68
2021/01/29 02:28:40;;;;;;;54.60;24.65;;;6.70;95.00;;;;;;5092648;28;20028;-67
2021/01/29 02:31:47;;;;;;;49.55;24.95;;;6.70;95.00;;;;;;5092427;28;20020;-67
2021/01/29 02:34:43;;;;;;;44.58;23.70;;;6.80;95.10;;;;;;5092758;28;20027;-68
2021/01/29 02:37:27;;;;;;;51.10;23.52;;;6.80;95.10;;;;;;5074364;28;20068;-68
2021/01/29 02:40:20;;;;;;;72.35;25.52;;;6.80;95.10;;;;;;5092152;28;20074;-67
2021/01/29 02:43:00;;;;;;;43.78;24.08;;;6.80;95.10;;;;;;5092947;28;20098;-68
2021/01/29 02:46:03;;;;;;;53.80;24.38;;;6.80;95.10;;;;;;5091868;28;20028;-67
2021/01/29 02:48:43;;;;;;;44.45;23.67;;;6.90;95.20;;;;;;5050349;28;20043;-67
2021/01/29 02:51:22;;;;;;;44.00;25.25;;;6.90;95.10;;;;;;5074621;28;20380;-67
2021/01/29 02:53:56;;;;;;;38.00;24.08;;;6.90;95.20;;;;;;5092089;28;20028;-67
2021/01/29 02:56:32;;;;;;;38.40;22.92;;;7.00;95.20;;;;;;5074337;28;20051;-67
2021/01/29 02:59:13;;;;;;;51.40;23.98;;;7.00;95.20;;;;;;5092269;28;20028;-67
2021/01/29 03:01:48;;;;;;;40.60;24.07;;;7.00;95.20;;;;;;5092470;28;20103;-67
2021/01/29 03:04:20;;;;;;;43.80;25.27;;;7.00;95.20;;;;;;5092757;28;20278;-67
2021/01/29 03:06:59;;;;;;;50.00;24.23;;;7.10;95.20;;;;;;5092256;28;20030;-68
2021/01/29 03:09:43;;;;;;;46.47;23.45;;;7.10;95.20;;;;;;5092360;28;20073;-68
2021/01/29 03:12:17;;;;;;;41.28;23.05;;;7.10;95.20;;;;;;5092580;28;20055;-68
2021/01/29 03:14:52;;;;;;;37.10;22.92;;;7.10;95.20;;;;;;5092204;28;20024;-67
2021/01/29 03:17:25;;;;;;;45.58;23.20;;;7.20;95.20;;;;;;5092516;28;20047;-68
2021/01/29 03:20:01;;;;;;;33.38;21.88;;;7.20;95.40;;;;;;5092518;28;20126;-67
2021/01/29 03:22:33;;;;;;;35.35;20.92;;;7.20;95.10;;;;;;5092790;28;20075;-67
2021/01/29 03:25:35;;;;;;;33.30;24.02;;;7.30;95.10;;;;;;5085586;28;20016;-67
2021/01/29 03:28:15;;;;;;;37.10;22.35;;;7.30;95.10;;;;;;5073812;28;20054;-67
2021/01/29 03:30:47;;;;;;;34.78;21.75;;;7.30;95.10;;;;;;5112245;28;20027;-68
2021/01/29 03:33:15;;;;;;;36.28;20.92;;;7.30;95.10;;;;;;5094500;28;20070;-67
2021/01/29 03:35:45;;;;;;;35.17;20.77;;;7.30;95.10;;;;;;5112129;28;20031;-67
2021/01/29 03:38:21;;;;;;;32.97;20.92;;;7.30;95.10;;;;;;5112478;28;20047;-69
2021/01/29 03:40:56;;;;;;;31.00;20.40;;;7.40;95.10;;;;;;5110071;28;20035;-68
2021/01/29 03:43:30;;;;;;;34.10;19.77;;;7.40;95.10;;;;;;5091338;28;20027;-66
2021/01/29 03:46:29;;;;;;;30.23;20.75;;;7.40;95.10;;;;;;5095393;28;20165;-68
2021/01/29 03:49:07;;;;;;;29.48;20.52;;;7.40;95.10;;;;;;5095074;28;20028;-69
2021/01/29 03:52:11;;;;;;;29.67;20.77;;;7.40;95.10;;;;;;5095728;28;20020;-67
2021/01/29 03:54:45;;;;;;;28.75;19.10;;;7.40;95.10;;;;;;4996329;28;20051;-68
2021/01/29 03:57:27;;;;;;;31.15;19.48;;;7.50;95.10;;;;;;5077035;28;20124;-67
2021/01/29 03:59:59;;;;;;;32.78;18.77;;;7.50;95.40;;;;;;5095672;28;20038;-68
2021/01/29 04:02:55;;;;;;;28.77;18.90;;;7.50;95.10;;;;;;5094802;28;20035;-67
2021/01/29 04:05:26;;;;;;;30.42;18.90;;;7.50;95.10;;;;;;5109123;28;20024;-67
2021/01/29 04:08:08;;;;;;;26.23;17.05;;;7.50;95.10;;;;;;5116206;28;20020;-67
2021/01/29 04:10:35;;;;;;;25.98;16.33;;;7.60;95.10;;;;;;5101684;28;20404;-67
2021/01/29 04:13:25;;;;;;;26.13;18.15;;;7.60;95.10;;;;;;5095548;28;20020;-68
2021/01/29 04:15:53;;;;;;;28.50;18.15;;;7.60;95.10;;;;;;5095375;28;20059;-67
2021/01/29 04:18:31;;;;;;;27.60;17.83;;;7.60;95.10;;;;;;5094521;28;20455;-68
2021/01/29 04:21:33;;;;;;;24.15;16.38;;;7.70;95.20;;;;;;5095648;28;20110;-66
2021/01/29 04:24:31;;;;;;;26.30;17.90;;;7.70;95.10;;;;;;5097276;28;20067;-68
2021/01/29 04:27:02;;;;;;;31.58;16.95;;;7.70;95.10;;;;;;5087586;28;20019;-67
2021/01/29 04:29:35;;;;;;;22.60;16.15;;;7.80;95.10;;;;;;5115329;28;20031;-67
2021/01/29 04:32:05;;;;;;;22.98;15.20;;;7.70;95.10;;;;;;5114990;28;20026;-67
2021/01/29 04:34:34;;;;;;;24.92;16.90;;;7.70;95.10;;;;;;5115268;28;20058;-67
2021/01/29 04:37:05;;;;;;;21.52;15.15;;;7.80;95.20;;;;;;5115181;28;20051;-67
2021/01/29 04:39:39;;;;;;;20.80;14.98;;;7.80;95.10;;;;;;5114028;28;20031;-66
2021/01/29 04:42:17;;;;;;;28.63;15.85;;;7.80;95.10;;;;;;5115327;28;20023;-67
2021/01/29 04:45:00;;;;;;;24.55;16.58;;;7.90;95.10;;;;;;5085071;28;20023;-67
2021/01/29 04:47:30;;;;;;;22.35;16.33;;;7.90;95.10;;;;;;5112723;28;20379;-68
2021/01/29 04:50:26;;;;;;;17.88;14.93;;;7.90;95.20;;;;;;5115197;28;20027;-67
2021/01/29 04:53:01;;;;;;;18.08;14.23;;;7.90;95.20;;;;;;5114537;28;20368;-68
2021/01/29 04:55:45;;;;;;;22.88;14.55;;;8.00;95.20;;;;;;5114838;28;20028;-67
2021/01/29 04:58:41;;;;;;;18.30;14.35;;;8.00;95.20;;;;;;5114994;28;20045;-68
2021/01/29 05:01:07;;;;;;;19.75;14.25;;;8.00;95.20;;;;;;5106563;28;20384;-68
2021/01/29 05:03:51;;;;;;;19.63;13.65;;;8.00;95.20;;;;;;5102477;27;20023;-68
2021/01/29 05:06:42;;;;;;;20.02;14.50;;;8.00;95.30;;;;;;5111625;28;20181;-69
2021/01/29 05:09:32;;;;;;;18.08;14.98;;;8.00;95.30;;;;;;5105082;28;20024;-66
2021/01/29 05:12:27;;;;;;;17.33;13.75;;;8.10;95.30;;;;;;5113984;28;20449;-68
2021/01/29 05:15:20;;;;;;;15.80;13.27;;;8.20;95.30;;;;;;5113499;28;20118;-68
2021/01/29 05:18:04;;;;;;;14.35;12.63;;;8.20;95.20;;;;;;5113935;28;20111;-68
2021/01/29 05:21:18;;;;;;;15.75;12.10;;;8.30;95.10;;;;;;5108936;28;20027;-70
2021/01/29 05:24:16;;;;;;;16.13;12.07;;;8.40;95.10;;;;;;5073640;28;20103;-69
2021/01/29 05:27:15;;;;;;;17.63;11.65;;;8.40;95.00;;;;;;5092586;28;20024;-70
2021/01/29 05:29:53;;;;;;;18.77;13.45;;;8.50;94.90;;;;;;5093331;28;20024;-69
2021/01/29 05:32:53;;;;;;;14.20;12.55;;;8.50;94.80;;;;;;5093261;28;20024;-70
2021/01/29 05:35:49;;;;;;;14.15;11.75;;;8.60;94.80;;;;;;5087969;28;20044;-71
2021/01/29 05:38:21;;;;;;;12.82;10.75;;;8.70;94.70;;;;;;5074887;28;20044;-70
2021/01/29 05:41:24;;;;;;;12.07;10.15;;;8.80;94.60;;;;;;5074601;28;20031;-70
2021/01/29 05:44:17;;;;;;;12.90;10.93;;;8.90;94.50;;;;;;5094029;28;20482;-71
2021/01/29 05:47:09;;;;;;;11.40;9.95;;;8.90;94.40;;;;;;5111993;28;20028;-69
2021/01/29 05:50:00;;;;;;;375.55;26.70;;;9.00;94.30;;;;;;5103474;28;20030;-69
2021/01/29 05:52:41;;;;;;;12.32;8.80;;;9.10;94.20;;;;;;5074725;28;20031;-70
2021/01/29 05:55:26;;;;;;;14.05;10.43;;;9.10;94.30;;;;;;5074303;28;20024;-73
2021/01/29 05:58:15;;;;;;;11.50;10.30;;;9.20;94.20;;;;;;5084043;28;20034;-72
2021/01/29 06:01:18;;;;;;;11.40;9.63;;;9.20;94.20;;;;;;5093248;28;20020;-73
2021/01/29 06:04:05;;;;;;;11.80;9.75;;;9.30;94.20;;;;;;5095266;28;20024;-70
2021/01/29 06:06:55;;;;;;;13.85;10.68;;;9.30;94.10;;;;;;5074915;28;20395;-70
2021/01/29 06:09:51;;;;;;;12.40;10.23;;;9.40;94.30;;;;;;5092263;28;20020;-69
2021/01/29 06:12:35;;;;;;;46.20;15.88;;;9.30;94.60;;;;;;5108685;28;20042;-70
2021/01/29 06:15:40;;;;;;;10.13;9.07;;;9.30;94.90;;;;;;5094761;28;20058;-69
2021/01/29 06:18:50;;;;;;;12.80;9.10;;;9.30;95.10;;;;;;5104165;28;20089;-69
2021/01/29 06:21:52;;;;;;;9.15;8.27;;;9.40;95.20;;;;;;5087878;28;20036;-70
2021/01/29 06:24:36;;;;;;;;;;;9.40;95.30;;;;;;5094899;28;20041;-70
2021/01/29 06:27:37;;;;;;;8.88;7.80;;;9.50;95.30;;;;;;5113579;28;19997;-69
2021/01/29 06:30:31;;;;;;;7.85;7.05;;;9.50;95.30;;;;;;5112713;28;20031;-69
2021/01/29 06:32:57;;;;;;;7.07;6.38;;;9.50;95.50;;;;;;5113525;28;20106;-69
2021/01/29 06:35:50;;;;;;;5.90;5.40;;;9.50;95.50;;;;;;5113112;28;20055;-69
2021/01/29 06:38:30;;;;;;;6.43;5.55;;;9.50;95.70;;;;;;5112466;28;20055;-69
2021/01/29 06:41:21;;;;;;;7.03;5.55;;;9.50;95.80;;;;;;5113327;28;20043;-69
2021/01/29 06:44:24;;;;;;;6.32;5.38;;;9.60;96.00;;;;;;5113324;28;20028;-69
2021/01/29 06:47:22;;;;;;;5.38;4.88;;;9.60;96.00;;;;;;5113181;28;20498;-69
2021/01/29 06:50:38;;;;;;;5.45;4.95;;;9.60;96.10;;;;;;5113174;28;20020;-69
2021/01/29 06:53:25;;;;;;;5.60;5.05;;;9.60;96.10;;;;;;5069372;28;20472;-68
2021/01/29 06:56:09;;;;;;;5.72;4.88;;;9.60;96.10;;;;;;5113492;28;20464;-69
2021/01/29 06:59:10;;;;;;;5.15;4.38;;;9.60;96.20;;;;;;5112147;28;20065;-70
2021/01/29 07:01:43;;;;;;;4.20;3.60;;;9.60;96.20;;;;;;5113197;28;20012;-69
2021/01/29 07:04:28;;;;;;;4.72;3.30;;;9.60;96.30;;;;;;5113048;28;20047;-70
2021/01/29 07:07:12;;;;;;;6.57;3.30;;;9.50;96.30;;;;;;5112392;28;20023;-70
2021/01/29 07:10:13;;;;;;;4.57;2.78;;;9.50;96.30;;;;;;5112518;28;20058;-69
2021/01/29 07:13:00;;;;;;;4.63;3.20;;;9.50;96.40;;;;;;5112010;28;20028;-69
2021/01/29 07:15:50;;;;;;;5.63;3.47;;;9.40;96.40;;;;;;5112663;28;20028;-70
2021/01/29 07:18:47;;;;;;;5.85;3.17;;;9.40;96.40;;;;;;5112872;28;20118;-70
2021/01/29 07:21:31;;;;;;;4.72;3.38;;;9.40;96.70;;;;;;5115732;28;20398;-70
2021/01/29 07:23:57;;;;;;;5.60;3.42;;;9.40;96.50;;;;;;5116826;28;20046;-70
2021/01/29 07:27:01;;;;;;;5.25;3.90;;;9.40;96.50;;;;;;5115865;28;20471;-70
2021/01/29 07:29:38;;;;;;;7.47;3.70;;;9.40;96.50;;;;;;5116652;28;20502;-70
2021/01/29 07:32:23;;;;;;;6.18;4.45;;;9.40;96.50;;;;;;5116965;28;20055;-70
2021/01/29 07:35:03;;;;;;;7.72;5.30;;;9.40;96.50;;;;;;5116004;28;20058;-70
2021/01/29 07:37:54;;;;;;;8.52;6.15;;;9.40;96.50;;;;;;5115955;28;20043;-70
2021/01/29 07:40:37;;;;;;;6.72;5.35;;;9.40;96.80;;;;;;5115596;28;20074;-70
2021/01/29 07:43:11;;;;;;;5.97;4.55;;;9.40;96.60;;;;;;5116324;28;20031;-69
2021/01/29 07:45:52;;;;;;;6.68;4.88;;;9.40;96.60;;;;;;5116203;28;20055;-69
2021/01/29 07:48:23;;;;;;;6.23;5.43;;;9.30;96.60;;;;;;5115149;28;20099;-69
2021/01/29 07:50:55;;;;;;;4.72;3.08;;;9.40;96.70;;;;;;5116564;28;20027;-69
2021/01/29 07:54:02;;;;;;;4.53;3.42;;;9.40;96.80;;;;;;5116000;28;20154;-68
2021/01/29 07:56:53;;;;;;;7.22;3.35;;;9.40;96.70;;;;;;5115413;28;20099;-69
2021/01/29 07:59:47;;;;;;;5.95;3.88;;;9.40;96.70;;;;;;5115850;28;20093;-69
2021/01/29 08:02:22;;;;;;;3.88;2.95;;;9.40;96.70;;;;;;5115625;28;20031;-69
2021/01/29 08:04:53;;;;;;;6.10;3.15;;;9.40;96.70;;;;;;5097855;28;20035;-69
2021/01/29 08:07:29;;;;;;;4.50;2.53;;;9.40;96.70;;;;;;5097548;28;20036;-69
2021/01/29 08:09:59;;;;;;;6.78;2.30;;;9.50;96.70;;;;;;5115409;28;20023;-69
2021/01/29 08:12:27;;;;;;;3.63;1.88;;;9.50;96.70;;;;;;5115592;28;20491;-69
2021/01/29 08:15:11;;;;;;;4.65;2.08;;;9.50;96.70;;;;;;5115851;28;20107;-69
2021/01/29 08:18:14;;;;;;;4.25;1.90;;;9.50;96.70;;;;;;5114916;28;20028;-69
2021/01/29 08:21:07;;;;;;;2.35;1.92;;;9.50;96.70;;;;;;5115521;28;20483;-69
2021/01/29 08:23:46;;;;;;;3.15;1.77;;;9.50;96.80;;;;;;5114871;28;20019;-69
2021/01/29 08:26:17;;;;;;;4.80;2.47;;;9.50;96.80;;;;;;5115847;28;20028;-68
2021/01/29 08:29:09;;;;;;;3.63;2.28;;;9.60;96.80;;;;;;5115666;28;20047;-68
2021/01/29 08:32:07;;;;;;;3.58;2.25;;;9.60;96.80;;;;;;5114390;28;20072;-68
2021/01/29 08:34:57;;;;;;;5.10;2.70;;;9.70;96.80;;;;;;5115405;28;20058;-68
2021/01/29 08:37:43;;;;;;;5.63;2.42;;;9.70;96.70;;;;;;5114333;28;20043;-68
2021/01/29 08:40:23;;;;;;;8.25;2.60;;;9.60;96.70;;;;;;5115400;28;20037;-68
2021/01/29 08:43:11;;;;;;;9.35;3.40;;;9.60;96.80;;;;;;5097131;28;20399;-68
2021/01/29 08:45:42;;;;;;;5.63;2.80;;;9.60;96.80;;;;;;5096110;28;20032;-67
2021/01/29 08:48:43;;;;;;;5.55;2.53;;;9.70;96.90;;;;;;5096796;28;20028;-68
2021/01/29 08:51:29;;;;;;;6.35;2.45;;;9.70;96.90;;;;;;5074152;28;20055;-68
2021/01/29 08:54:06;;;;;;;9.10;2.47;;;9.70;96.90;;;;;;5096945;28;20020;-68
2021/01/29 08:56:53;;;;;;;10.20;3.38;;;9.70;96.90;;;;;;5114671;28;20032;-68
2021/01/29 08:59:22;;;;;;;9.52;2.60;;;9.70;96.90;;;;;;5114167;28;20035;-69
2021/01/29 09:02:06;;;;;;;11.95;3.33;;;9.70;96.90;;;;;;5115053;28;20012;-68
2021/01/29 09:04:47;;;;;;;12.15;3.92;;;9.80;96.90;;;;;;5114687;28;20024;-68
2021/01/29 09:07:20;;;;;;;15.43;3.55;;;9.80;96.80;;;;;;5114896;28;20023;-69
2021/01/29 09:09:47;;;;;;;14.50;3.67;;;9.80;96.80;;;;;;5114949;28;20034;-69
2021/01/29 09:12:18;;;;;;;18.13;4.53;;;9.70;96.80;;;;;;5113991;28;20027;-68
2021/01/29 09:14:55;;;;;;;13.00;4.50;;;9.70;96.80;;;;;;5114774;28;20027;-69
2021/01/29 09:17:25;;;;;;;16.85;4.35;;;9.70;97.10;;;;;;5113973;28;20020;-68
2021/01/29 09:20:00;;;;;;;17.27;4.53;;;9.70;96.80;;;;;;5113895;28;20460;-68
2021/01/29 09:22:39;;;;;;;10.27;3.05;;;9.60;96.80;;;;;;5114458;28;20371;-68
2021/01/29 09:25:26;;;;;;;14.50;4.07;;;9.60;96.90;;;;;;5114729;28;20031;-68
2021/01/29 09:28:06;;;;;;;12.65;3.20;;;9.60;96.90;;;;;;5113560;28;20027;-69
2021/01/29 09:30:38;;;;;;;12.52;3.20;;;9.50;96.90;;;;;;5114043;28;20073;-69
2021/01/29 09:33:20;;;;;;;14.10;3.72;;;9.50;97.00;;;;;;5113855;28;20042;-69
2021/01/29 09:35:51;;;;;;;17.92;4.25;;;9.50;97.00;;;;;;5114350;28;20520;-69
2021/01/29 09:38:31;;;;;;;17.98;4.60;;;9.50;97.00;;;;;;5114136;28;20052;-69
2021/01/29 09:41:26;;;;;;;20.13;4.43;;;9.50;97.00;;;;;;5113522;28;20427;-69
2021/01/29 09:44:02;;;;;;;13.13;4.03;;;9.50;97.00;;;;;;5108312;28;20097;-69
2021/01/29 09:46:32;;;;;;;18.27;5.05;;;9.50;96.90;;;;;;5113782;28;20020;-69
2021/01/29 09:49:07;;;;;;;16.33;5.15;;;9.40;96.90;;;;;;5113246;28;20022;-69
2021/01/29 09:51:51;;;;;;;18.55;4.63;;;9.40;96.90;;;;;;5113716;28;20034;-69
2021/01/29 09:54:41;;;;;;;26.02;6.03;;;9.40;96.90;;;;;;5113300;28;20024;-69
2021/01/29 09:57:25;;;;;;;25.60;5.50;;;9.40;96.90;;;;;;5113855;28;20023;-69
2021/01/29 10:00:14;;;;;;;31.60;6.30;;;9.40;96.90;;;;;;5113793;28;20024;-69
2021/01/29 10:02:59;;;;;;;28.02;5.50;;;9.30;96.70;;;;;;5112825;28;20023;-70
2021/01/29 10:05:37;;;;;;;36.53;6.57;;;9.30;96.70;;;;;;5113584;28;20106;-69
2021/01/29 10:08:06;;;;;;;29.50;5.68;;;9.30;96.70;;;;;;5113079;28;20046;-69
2021/01/29 10:10:57;;;;;;;29.25;5.93;;;9.40;96.70;;;;;;5113446;28;20068;-69
2021/01/29 10:13:44;;;;;;;34.05;6.63;;;9.40;96.60;;;;;;5113402;28;20020;-69
2021/01/29 10:16:30;;;;;;;28.17;6.85;;;9.50;96.40;;;;;;5112846;28;20028;-69
2021/01/29 10:19:00;;;;;;;22.92;4.95;;;9.50;96.40;;;;;;5113573;28;20070;-70
2021/01/29 10:21:45;;;;;;;30.25;6.18;;;9.50;96.30;;;;;;5113456;28;20452;-70
2021/01/29 10:24:24;;;;;;;37.90;6.57;;;9.60;96.20;;;;;;5112942;28;20016;-70
2021/01/29 10:26:59;;;;;;;34.28;6.45;;;9.60;96.10;;;;;;5095174;28;20098;-70
2021/01/29 10:29:27;;;;;;;27.10;5.97;;;9.60;96.00;;;;;;5112409;28;20028;-69
2021/01/29 10:32:03;;;;;;;33.90;7.00;;;9.60;95.90;;;;;;5113531;28;20103;-69
2021/01/29 10:34:41;;;;;;;30.80;5.55;;;9.60;95.90;;;;;;5094752;28;20020;-69
2021/01/29 10:37:31;;;;;;;38.10;7.50;;;9.70;95.80;;;;;;5112498;28;20019;-69
2021/01/29 10:40:11;;;;;;;26.50;6.35;;;9.80;95.70;;;;;;5113261;28;20032;-69
2021/01/29 10:42:55;;;;;;;31.52;6.20;;;9.90;95.60;;;;;;5113088;28;20019;-69
2021/01/29 10:45:37;;;;;;;32.00;7.82;;;10.00;95.30;;;;;;5112287;28;20543;-69
2021/01/29 10:48:27;;;;;;;24.33;5.30;;;10.10;95.20;;;;;;5113208;28;20027;-69
2021/01/29 10:51:15;;;;;;;25.70;5.82;;;10.10;95.00;;;;;;5094161;28;20043;-69
2021/01/29 10:53:41;;;;;;;23.63;5.88;;;10.20;94.90;;;;;;5113965;28;20024;-69
2021/01/29 10:56:13;;;;;;;30.23;5.63;;;10.20;94.80;;;;;;5117319;28;20102;-70
2021/01/29 10:58:56;;;;;;;;;;;10.30;94.50;;;;;;5116711;28;20444;-69
2021/01/29 11:01:32;;;;;;;27.65;5.22;;;10.30;94.50;;;;;;5117371;28;19904;-69
2021/01/29 11:04:09;;;;;;;31.15;5.90;;;10.30;94.30;;;;;;5117336;28;20027;-69
2021/01/29 11:06:43;;;;;;;33.97;6.85;;;10.40;94.10;;;;;;5116257;28;20030;-69
2021/01/29 11:09:18;;;;;;;32.05;7.28;;;10.40;94.20;;;;;;5117139;28;20032;-69
2021/01/29 11:11:52;;;;;;;29.15;5.72;;;10.40;94.10;;;;;;5116615;28;20020;-69
2021/01/29 11:14:34;;;;;;;23.02;5.35;;;10.50;94.00;;;;;;5116794;28;20065;-69
2021/01/29 11:17:15;;;;;;;24.08;6.18;;;10.60;94.00;;;;;;5116773;28;20059;-69
2021/01/29 11:19:44;;;;;;;31.75;6.43;;;10.70;93.90;;;;;;5115818;28;20031;-69
2021/01/29 11:22:32;;;;;;;33.45;5.03;;;10.80;93.80;;;;;;5117036;28;20492;-69
2021/01/29 11:25:15;;;;;;;30.13;6.38;;;10.80;93.70;;;;;;5117111;28;20032;-68
2021/01/29 11:27:58;;;;;;;25.48;5.18;;;10.90;93.50;;;;;;5115750;28;20055;-69
2021/01/29 11:30:32;;;;;;;31.10;7.88;;;10.80;93.40;;;;;;5116196;28;20033;-69
2021/01/29 11:33:00;;;;;;;26.17;6.03;;;10.80;93.50;;;;;;5116279;28;20034;-69
2021/01/29 11:35:34;;;;;;;25.80;6.07;;;10.80;93.50;;;;;;5116299;28;20020;-69
2021/01/29 11:38:27;;;;;;;31.60;7.20;;;10.80;93.40;;;;;;5116175;28;20427;-69
2021/01/29 11:41:20;;;;;;;32.75;6.13;;;10.80;93.30;;;;;;5115773;28;20036;-69
2021/01/29 11:44:01;;;;;;;21.23;4.43;;;10.80;93.30;;;;;;5116438;28;20098;-70
2021/01/29 11:46:57;;;;;;;20.98;5.10;;;10.70;93.30;;;;;;5097704;28;20030;-69
2021/01/29 11:49:34;;;;;;;37.83;6.13;;;10.70;93.40;;;;;;5116143;28;20023;-69
2021/01/29 11:52:07;;;;;;;27.70;5.18;;;10.70;93.50;;;;;;5116357;28;20030;-70
2021/01/29 11:54:53;;;;;;;23.88;5.35;;;10.70;93.40;;;;;;5115414;28;20043;-69
2021/01/29 11:57:33;;;;;;;25.60;6.47;;;10.70;93.30;;;;;;5115956;28;20089;-70
2021/01/29 12:00:21;;;;;;;23.13;5.05;;;10.70;93.10;;;;;;5097898;28;20058;-69
2021/01/29 12:03:14;;;;;;;17.30;4.25;;;10.80;93.00;;;;;;5115662;28;20015;-69
2021/01/29 12:05:53;;;;;;;19.60;4.75;;;10.90;93.00;;;;;;5115253;28;20103;-69
2021/01/29 12:08:27;;;;;;;25.60;5.00;;;10.90;92.90;;;;;;5114907;28;20023;-68
2021/01/29 12:11:06;;;;;;;25.92;5.30;;;11.00;92.90;;;;;;5116028;28;20019;-68
2021/01/29 12:13:56;;;;;;;22.10;5.10;;;11.10;92.90;;;;;;5115426;28;20027;-68
2021/01/29 12:16:29;;;;;;;23.23;4.88;;;11.00;92.90;;;;;;5114843;28;20399;-69
2021/01/29 12:18:57;;;;;;;19.15;5.55;;;11.10;92.90;;;;;;5115853;28;20020;-69
2021/01/29 12:21:25;;;;;;;21.55;5.40;;;11.10;92.90;;;;;;5115557;28;20015;-69
2021/01/29 12:24:09;;;;;;;21.70;5.22;;;11.00;92.80;;;;;;5114824;28;20028;-69
2021/01/29 12:26:57;;;;;;;28.42;5.45;;;11.00;92.80;;;;;;5115186;28;20024;-69
2021/01/29 12:29:47;;;;;;;23.58;5.18;;;10.90;92.90;;;;;;5114523;28;20031;-69
2021/01/29 12:32:27;;;;;;;21.17;4.40;;;10.90;93.10;;;;;;5115637;28;20015;-69
2021/01/29 12:35:01;;;;;;;20.48;4.65;;;11.00;93.00;;;;;;5115357;28;20111;-69
2021/01/29 12:37:52;;;;;;;25.73;5.78;;;11.00;92.70;;;;;;5095899;28;20475;-68
2021/01/29 12:40:32;;;;;;;25.05;5.68;;;11.00;92.50;;;;;;5067273;28;20158;-68
2021/01/29 12:43:13;;;;;;;21.13;4.63;;;11.00;92.60;;;;;;5114419;28;20051;-68
2021/01/29 12:45:53;;;;;;;23.60;4.95;;;11.00;92.50;;;;;;5114974;28;20440;-68
2021/01/29 12:48:49;;;;;;;20.83;4.38;;;11.00;92.60;;;;;;5114917;28;20028;-68
2021/01/29 12:51:39;;;;;;;34.47;6.00;;;10.90;92.70;;;;;;5114525;28;20027;-68
2021/01/29 12:54:29;;;;;;;26.15;5.75;;;10.90;92.80;;;;;;5115267;28;20028;-68
2021/01/29 12:56:57;;;;;;;21.70;4.50;;;10.80;93.00;;;;;;5114330;28;20444;-69
2021/01/29 13:00:04;;;;;;;19.27;4.20;;;10.80;93.30;;;;;;5114495;28;20106;-70
2021/01/29 13:03:01;;;;;;;16.52;4.30;;;10.80;93.30;;;;;;5064935;28;20036;-70
2021/01/29 13:06:00;;;;;;;15.68;3.78;;;10.80;93.20;;;;;;5113914;28;20024;-71
2021/01/29 13:09:03;;;;;;;17.30;6.03;;;10.70;93.20;;;;;;5095815;28;20379;-69
2021/01/29 13:11:55;;;;;;;11.63;3.50;;;10.60;93.40;;;;;;5113634;28;20035;-68
2021/01/29 13:14:41;;;;;;;16.90;4.13;;;10.50;93.50;;;;;;5089708;28;20036;-69
2021/01/29 13:17:42;;;;;;;18.13;3.72;;;10.50;93.50;;;;;;5113555;28;20149;-68
2021/01/29 13:20:13;;;;;;;12.43;3.67;;;10.40;93.60;;;;;;5057944;28;20040;-68
2021/01/29 13:22:48;;;;;;;12.38;3.03;;;10.40;93.50;;;;;;5096060;28;20023;-69
2021/01/29 13:25:22;;;;;;;17.40;4.25;;;10.30;93.50;;;;;;5113709;28;20499;-69
2021/01/29 13:28:14;;;;;;;23.25;5.57;;;10.30;93.60;;;;;;5114609;28;20020;-68
2021/01/29 13:30:42;;;;;;;24.45;5.18;;;10.30;93.70;;;;;;5113946;28;20468;-68
2021/01/29 13:33:23;;;;;;;11.85;3.45;;;10.30;93.90;;;;;;5113599;28;20090;-69
2021/01/29 13:36:01;;;;;;;16.65;4.40;;;10.30;94.00;;;;;;5114300;28;20077;-69
2021/01/29 13:38:33;;;;;;;23.25;5.55;;;10.30;94.00;;;;;;5113820;28;20046;-69
2021/01/29 13:41:13;;;;;;;18.95;4.28;;;10.30;94.10;;;;;;5113363;28;20023;-68
2021/01/29 13:43:41;;;;;;;18.00;5.10;;;10.30;94.20;;;;;;5113762;28;20055;-69
2021/01/29 13:46:27;;;;;;;15.80;3.70;;;10.30;94.20;;;;;;5113324;28;20102;-69
2021/01/29 13:49:14;;;;;;;21.55;4.20;;;10.40;94.10;;;;;;5096209;28;20039;-69
2021/01/29 13:51:41;;;;;;;17.88;4.55;;;10.40;94.00;;;;;;5095526;28;20027;-69